EST,Max TemperatureF,Mean TemperatureF,Min TemperatureF,Max Dew PointF,MeanDew PointF,Min DewpointF,Max Humidity, Mean Humidity, Min Humidity, Max Sea Level PressureIn, Mean Sea Level PressureIn, Min Sea Level PressureIn, Max VisibilityMiles, Mean VisibilityMiles, Min VisibilityMiles, Max Wind SpeedMPH, Mean Wind SpeedMPH, Max Gust SpeedMPH,PrecipitationIn, CloudCover, Events, WindDirDegrees
2012-11-1,57,52,48,45,43,41,87,70,58,29.59,29.56,29.53,10,10,9,21,10,28,0.00,3,,236
2012-11-2,53,50,46,43,40,37,82,69,58,29.61,29.57,29.53,10,10,8,20,11,25,0.01,6,,292
2012-11-3,51,48,46,39,36,32,76,63,50,29.78,29.69,29.60,10,9,7,22,15,30,0.00,5,,315
2012-11-4,51,48,42,37,35,32,71,64,54,29.93,29.85,29.78,10,10,8,18,15,29,0.00,2,,320
2012-11-5,44,42,39,37,32,21,87,69,49,30.11,29.99,29.93,10,9,7,17,14,25,0.07,7,,348
2012-11-6,42,37,33,28,23,19,70,55,45,30.24,30.19,30.12,10,10,8,14,9,20,0.00,3,,355
2012-11-7,46,42,39,41,35,28,93,73,53,30.15,29.92,29.65,10,8,3,44,25,55,0.35,8,,54
2012-11-8,48,45,42,48,44,39,100,94,87,29.68,29.55,29.46,8,3,1,45,36,60,0.40,8,,19
2012-11-9,51,46,42,43,35,28,93,65,41,30.09,29.89,29.68,10,9,4,29,22,40,0.02,3,,327
2012-11-10,50,41,32,39,33,28,93,71,54,30.48,30.30,30.09,10,10,8,21,11,28,0.00,0,,323
2012-11-11,57,44,32,52,44,28,94,82,71,30.54,30.49,30.45,10,10,7,15,7,22,0.00,3,,186
2012-11-12,62,56,51,57,54,50,100,87,72,30.51,30.43,30.28,10,10,9,15,11,21,0.00,2,,191
2012-11-13,60,52,44,57,49,37,94,86,71,30.40,30.26,30.18,10,9,3,22,15,28,0.71,7,,291
2012-11-14,46,44,42,39,34,30,81,66,57,30.50,30.46,30.40,10,10,10,23,18,30,0.00,7,,27
2012-11-15,44,43,42,37,36,34,81,72,66,30.43,30.36,30.30,10,10,10,23,17,30,0.00,8,,32
2012-11-16,46,44,42,36,34,32,76,69,61,30.40,30.30,30.26,10,10,10,16,11,21,0.00,6,,16
2012-11-17,46,44,41,37,34,30,76,66,57,30.65,30.56,30.41,10,10,10,18,13,24,0.00,5,,34
2012-11-18,48,45,42,36,32,28,76,62,50,30.70,30.66,30.62,10,10,10,15,10,22,0.00,1,,55
2012-11-19,50,46,42,43,39,34,82,73,66,30.60,30.43,30.26,10,10,10,12,8,,0.00,8,,49
2012-11-20,51,48,44,39,37,36,76,69,58,30.25,30.17,30.14,10,10,10,15,10,20,0.00,6,,40
2012-11-21,53,50,46,43,39,36,76,68,58,30.21,30.18,30.15,10,10,10,14,11,16,0.00,2,,49
2012-11-22,,,,,,,,,,,,,,,,,,,,,,
2012-11-23,,,,,,,,,,,,,,,,,,,,,,
2012-11-24,,,,,,,,,,,,,,,,,,,,,,
2012-11-25,,,,,,,,,,,,,,,,,,,,,,
2012-11-26,,,,,,,,,,,,,,,,,,,,,,
2012-11-27,,,,,,,,,,,,,,,,,,,,,,
2012-11-28,39,37,35,36,30,23,93,75,56,30.17,30.13,30.10,10,10,10,23,18,30,0.00,7,,335
2012-11-29,42,38,35,28,26,21,75,60,45,30.27,30.21,30.15,10,10,10,26,17,34,0.00,0,,271
2012-11-30,42,38,35,30,27,21,70,62,52,30.47,30.34,30.22,10,10,10,25,19,33,0.00,5,,335